Time;durP1;ratioP1;P1;durP2;ratioP2;P2;SDS_P1;SDS_P2;PMS_P1;PMS_P2;Temp;Humidity;BMP_temperature;BMP_pressure;BME280_temperature;BME280_humidity;BME280_pressure;Samples;Min_cycle;Max_cycle;Signal;HPM_P1;HPM_P2
2023/06/11 00:01:08;;;;;;;10.32;8.35;;;;;;;17.94;56.61;99799.00;5032013;28;20022;-83
2023/06/11 00:03:35;;;;;;;13.57;7.95;;;;;;;17.94;57.05;99791.94;5031862;28;20053;-84
2023/06/11 00:06:01;;;;;;;9.13;7.68;;;;;;;17.91;56.89;99794.81;5031987;28;20028;-83
2023/06/11 00:08:26;;;;;;;12.68;8.40;;;;;;;17.85;57.14;99786.53;5031770;28;20113;-83
2023/06/11 00:10:51;;;;;;;9.95;8.07;;;;;;;17.79;57.19;99769.38;5032252;28;20030;-83
2023/06/11 00:13:17;;;;;;;10.68;7.63;;;;;;;17.96;57.57;99799.75;5031632;28;20077;-83
2023/06/11 00:15:42;;;;;;;10.93;7.80;;;;;;;17.76;58.15;99766.13;5032055;28;20025;-84
2023/06/11 00:18:07;;;;;;;12.20;8.95;;;;;;;17.76;58.16;99760.88;5030728;28;20025;-83
2023/06/11 00:20:33;;;;;;;10.30;8.30;;;;;;;17.88;58.35;99788.94;5031597;28;20457;-83
2023/06/11 00:22:58;;;;;;;11.88;8.40;;;;;;;17.76;58.70;99782.78;5031788;28;20037;-83
2023/06/11 00:25:23;;;;;;;9.05;7.75;;;;;;;17.83;58.38;99781.38;5031578;28;20028;-84
2023/06/11 00:27:49;;;;;;;13.98;8.82;;;;;;;17.81;59.17;99796.44;5032018;28;20160;-83
2023/06/11 00:30:16;;;;;;;11.00;8.48;;;;;;;17.81;59.19;99798.25;5030665;28;20100;-83
2023/06/11 00:32:41;;;;;;;10.02;7.93;;;;;;;17.84;59.44;99796.22;5031606;28;20029;-83
2023/06/11 00:35:08;;;;;;;10.80;7.95;;;;;;;17.66;59.75;99779.13;5031898;28;20025;-84
2023/06/11 00:37:35;;;;;;;9.05;7.32;;;;;;;17.75;59.79;99791.63;5031455;28;20076;-83
2023/06/11 00:40:01;;;;;;;12.10;8.32;;;;;;;17.54;59.62;99767.69;5030368;28;20448;-83
2023/06/11 00:42:27;;;;;;;13.93;9.00;;;;;;;17.34;59.96;99740.19;5031294;28;20029;-83
2023/06/11 00:44:54;;;;;;;12.13;8.48;;;;;;;17.53;60.12;99779.19;5031758;28;20034;-83
2023/06/11 00:47:19;;;;;;;11.23;8.85;;;;;;;17.73;60.25;99816.38;5031460;28;20033;-83
2023/06/11 00:49:45;;;;;;;13.88;8.80;;;;;;;17.63;60.70;99808.31;5035031;28;20021;-83
2023/06/11 00:52:14;;;;;;;11.32;8.38;;;;;;;17.43;61.07;99783.44;5035560;28;20030;-83
2023/06/11 00:54:40;;;;;;;12.13;8.88;;;;;;;17.30;61.35;99759.78;5033801;28;20030;-83
2023/06/11 00:57:06;;;;;;;12.05;9.35;;;;;;;17.40;61.21;99781.88;5035580;28;20121;-83
2023/06/11 00:59:34;;;;;;;11.27;9.05;;;;;;;17.50;61.11;99803.09;5035159;28;20469;-83
2023/06/11 01:02:28;;;;;;;9.70;8.20;;;;;;;17.57;61.27;99808.75;5035256;28;20033;-83
2023/06/11 01:04:58;;;;;;;11.02;8.70;;;;;;;17.51;61.44;99815.31;5032749;28;20095;-83
2023/06/11 01:07:30;;;;;;;11.43;8.73;;;;;;;17.50;61.62;99811.00;5032450;28;20038;-83
2023/06/11 01:09:56;;;;;;;11.63;8.98;;;;;;;17.47;61.87;99811.22;5032681;28;20033;-83
2023/06/11 01:12:22;;;;;;;12.60;9.00;;;;;;;17.29;62.05;99780.97;5032701;28;20044;-84
2023/06/11 01:14:47;;;;;;;13.35;8.25;;;;;;;17.37;62.36;99803.16;5032554;28;20021;-83
2023/06/11 01:17:22;;;;;;;19.42;10.43;;;;;;;17.40;62.46;99821.38;5015983;28;20033;-83
2023/06/11 01:20:09;;;;;;;11.23;8.70;;;;;;;17.37;62.41;99811.06;5015890;28;20145;-83
2023/06/11 01:23:00;;;;;;;9.82;8.57;;;;;;;17.47;61.88;99816.50;5032193;28;20037;-83
2023/06/11 01:25:37;;;;;;;11.85;9.20;;;;;;;17.38;62.26;99809.25;5032245;28;20068;-83
2023/06/11 01:28:10;;;;;;;10.18;8.38;;;;;;;17.35;62.49;99810.31;5015599;28;20040;-83
2023/06/11 01:30:37;;;;;;;12.02;9.25;;;;;;;17.40;62.90;99828.41;5015421;28;20086;-83
2023/06/11 01:33:03;;;;;;;11.07;9.27;;;;;;;17.38;63.33;99827.69;5015340;28;20065;-83
2023/06/11 01:35:29;;;;;;;11.90;8.85;;;;;;;17.36;62.98;99830.44;5032029;28;20033;-83
2023/06/11 01:37:55;;;;;;;11.52;9.52;;;;;;;17.36;62.98;99834.84;5032446;28;20052;-83
2023/06/11 01:40:25;;;;;;;12.88;9.45;;;;;;;17.23;63.42;99812.97;5015230;28;20021;-83
2023/06/11 01:42:50;;;;;;;11.95;9.75;;;;;;;17.24;63.64;99836.59;5032729;28;20069;-83
2023/06/11 01:45:16;;;;;;;16.58;10.80;;;;;;;17.24;64.16;99831.31;5034660;28;20085;-83
2023/06/11 01:47:44;;;;;;;15.10;9.15;;;;;;;17.18;64.61;99840.47;5034370;28;20040;-83
2023/06/11 01:50:11;;;;;;;15.45;9.48;;;;;;;17.10;64.79;99839.31;5034430;28;20092;-83
2023/06/11 01:52:38;;;;;;;11.85;9.43;;;;;;;17.07;65.33;99844.84;5032848;28;20038;-83
2023/06/11 01:55:04;;;;;;;12.38;10.05;;;;;;;16.83;65.33;99810.56;5034179;28;20025;-83
2023/06/11 01:57:29;;;;;;;12.75;8.85;;;;;;;17.08;66.28;99852.59;5032867;28;20033;-83
2023/06/11 01:59:55;;;;;;;20.25;10.70;;;;;;;17.13;66.98;99850.50;5033064;28;20105;-83
2023/06/11 02:02:20;;;;;;;11.25;9.82;;;;;;;16.88;67.21;99817.16;5034247;28;20112;-83
2023/06/11 02:04:45;;;;;;;12.70;10.20;;;;;;;17.04;68.70;99845.03;5032628;28;20071;-83
2023/06/11 02:07:11;;;;;;;13.23;9.75;;;;;;;17.08;69.89;99846.50;5034176;28;20033;-83
2023/06/11 02:09:36;;;;;;;11.55;9.70;;;;;;;16.97;70.35;99857.78;5032591;28;20025;-83
2023/06/11 02:12:01;;;;;;;10.60;9.40;;;;;;;16.92;71.77;99852.84;5032606;28;20033;-83
2023/06/11 02:14:27;;;;;;;11.98;9.20;;;;;;;16.79;71.26;99820.44;5033959;28;20029;-84
2023/06/11 02:16:52;;;;;;;14.82;10.38;;;;;;;16.79;71.31;99823.06;5034018;28;20029;-83
2023/06/11 02:19:17;;;;;;;10.77;9.55;;;;;;;16.99;70.77;99848.00;5033976;28;20032;-83
2023/06/11 02:21:43;;;;;;;17.95;9.70;;;;;;;17.07;70.76;99850.94;5033496;28;20037;-83
2023/06/11 02:24:08;;;;;;;12.85;10.35;;;;;;;17.04;72.35;99852.94;5033776;28;20492;-83
2023/06/11 02:26:33;;;;;;;13.95;10.23;;;;;;;17.04;72.47;99866.09;5033381;28;20489;-83
2023/06/11 02:28:59;;;;;;;11.07;9.93;;;;;;;16.99;72.56;99853.25;5033838;28;20465;-83
2023/06/11 02:31:24;;;;;;;12.32;10.35;;;;;;;17.12;72.76;99867.25;5033500;28;20032;-83
2023/06/11 02:33:50;;;;;;;10.98;9.52;;;;;;;16.92;74.08;99844.94;5033459;28;20057;-83
2023/06/11 02:36:15;;;;;;;11.75;10.25;;;;;;;17.16;73.98;99878.41;5032299;28;20469;-83
2023/06/11 02:38:40;;;;;;;11.98;10.13;;;;;;;16.88;74.77;99845.25;5033239;28;20029;-83
2023/06/11 02:41:05;;;;;;;14.02;10.85;;;;;;;16.81;75.19;99839.59;5032076;28;20047;-83
2023/06/11 02:43:31;;;;;;;12.82;11.20;;;;;;;17.02;75.57;99878.50;5033392;28;20030;-83
2023/06/11 02:45:56;;;;;;;12.20;9.32;;;;;;;16.84;75.14;99855.16;5032175;28;20052;-83
2023/06/11 02:48:21;;;;;;;14.15;10.73;;;;;;;16.96;76.25;99880.63;5032104;28;20029;-83
2023/06/11 02:50:47;;;;;;;11.77;10.27;;;;;;;17.03;76.53;99882.84;5033335;28;20080;-83
2023/06/11 02:53:12;;;;;;;10.73;9.63;;;;;;;17.05;76.75;99899.34;5031864;28;20079;-83
2023/06/11 02:55:37;;;;;;;11.57;10.10;;;;;;;16.99;76.62;99887.47;5031631;28;20033;-83
2023/06/11 02:58:02;;;;;;;12.73;10.50;;;;;;;17.02;76.55;99900.38;5032002;28;20033;-83
2023/06/11 03:00:28;;;;;;;11.60;10.40;;;;;;;17.00;77.21;99893.56;5032948;28;20026;-83
2023/06/11 03:02:53;;;;;;;14.88;10.70;;;;;;;16.59;78.06;99848.06;5033049;28;20485;-83
2023/06/11 03:05:19;;;;;;;12.32;11.07;;;;;;;16.74;78.31;99869.91;5047460;28;20578;-83
2023/06/11 03:07:44;;;;;;;13.00;10.57;;;;;;;16.84;79.21;99891.97;5052680;28;20029;-83
2023/06/11 03:10:09;;;;;;;13.38;11.15;;;;;;;17.02;78.77;99910.06;5051497;28;20476;-83
2023/06/11 03:12:35;;;;;;;12.30;11.02;;;;;;;16.77;79.13;99859.19;5051080;28;20036;-83
2023/06/11 03:15:01;;;;;;;11.80;10.63;;;;;;;17.08;78.53;99904.41;5051510;28;20025;-83
2023/06/11 03:17:26;;;;;;;12.55;11.23;;;;;;;17.08;78.95;99902.59;5052687;28;20025;-83
2023/06/11 03:19:51;;;;;;;12.57;11.25;;;;;;;16.99;79.11;99891.88;5052657;28;20029;-83
2023/06/11 03:22:17;;;;;;;12.18;10.90;;;;;;;17.04;79.41;99916.09;5052656;28;20029;-83
2023/06/11 03:24:42;;;;;;;12.32;10.80;;;;;;;17.06;79.46;99932.59;5052286;28;20021;-83
2023/06/11 03:27:08;;;;;;;13.60;11.43;;;;;;;17.01;79.66;99914.50;5052705;28;20144;-83
2023/06/11 03:29:34;;;;;;;12.80;11.50;;;;;;;16.99;79.58;99915.56;5052327;28;20066;-83
2023/06/11 03:31:59;;;;;;;13.32;11.18;;;;;;;17.04;79.24;99923.97;5052391;28;20033;-84
2023/06/11 03:34:24;;;;;;;13.23;11.50;;;;;;;16.79;79.01;99888.81;5050965;28;20041;-84
2023/06/11 03:36:50;;;;;;;14.48;11.00;;;;;;;16.74;79.30;99890.09;5052149;28;20362;-83
2023/06/11 03:39:16;;;;;;;12.20;10.98;;;;;;;16.94;79.20;99916.72;5052477;28;20471;-83
2023/06/11 03:41:42;;;;;;;11.80;10.60;;;;;;;17.06;78.89;99928.16;5052171;28;20064;-83
2023/06/11 03:44:07;;;;;;;12.48;11.32;;;;;;;16.98;78.28;99927.88;5052198;28;20063;-83
2023/06/11 03:46:32;;;;;;;14.55;11.65;;;;;;;16.92;78.45;99910.72;5052007;28;20025;-83
2023/06/11 03:48:58;;;;;;;13.95;12.45;;;;;;;16.84;78.51;99914.81;5050922;28;20033;-83
2023/06/11 03:51:23;;;;;;;14.02;12.63;;;;;;;16.82;77.88;99904.41;5052134;28;20107;-83
2023/06/11 03:53:49;;;;;;;13.93;12.55;;;;;;;16.95;77.41;99928.09;5051913;28;20554;-83
2023/06/11 03:56:14;;;;;;;13.85;12.15;;;;;;;16.98;77.89;99938.41;5051971;28;20025;-83
2023/06/11 03:58:39;;;;;;;15.27;13.40;;;;;;;16.93;78.44;99929.97;5051906;28;20090;-83
2023/06/11 04:01:05;;;;;;;14.73;13.20;;;;;;;17.02;78.08;99936.38;5052052;28;20025;-83
2023/06/11 04:03:30;;;;;;;15.27;13.30;;;;;;;16.94;77.90;99922.00;5051743;28;20033;-84
2023/06/11 04:05:56;;;;;;;14.30;12.80;;;;;;;17.20;77.75;99927.25;5052323;28;20353;-83
2023/06/11 04:08:21;;;;;;;15.95;12.63;;;;;;;17.39;77.42;99909.19;5051891;28;20036;-83
2023/06/11 04:10:47;;;;;;;16.00;12.65;;;;;;;17.59;77.05;99915.69;5051563;28;20048;-84
2023/06/11 04:13:12;;;;;;;14.27;12.80;;;;;;;17.97;76.48;99945.53;5052020;28;20079;-84
2023/06/11 04:15:37;;;;;;;17.15;13.52;;;;;;;18.07;75.76;99931.53;5050420;28;20021;-84
2023/06/11 04:18:03;;;;;;;14.32;12.65;;;;;;;18.51;75.02;99942.41;5051913;28;20035;-84
2023/06/11 04:20:28;;;;;;;12.80;11.57;;;;;;;18.85;74.30;99938.09;5050501;28;20021;-84
2023/06/11 04:22:53;;;;;;;14.73;13.07;;;;;;;19.32;72.86;99917.72;5051699;28;20025;-84
2023/06/11 04:25:19;;;;;;;14.10;12.57;;;;;;;20.22;70.28;99942.19;5055883;28;20025;-84
2023/06/11 04:27:46;;;;;;;13.15;11.55;;;;;;;21.46;67.21;99942.34;5055591;28;20024;-85
2023/06/11 04:30:12;;;;;;;14.23;12.82;;;;;;;22.29;65.07;99945.59;5055921;28;20469;-84
2023/06/11 04:32:40;;;;;;;13.77;12.23;;;;;;;22.46;64.09;99939.59;5055540;28;20037;-85
2023/06/11 04:35:06;;;;;;;14.32;12.70;;;;;;;21.95;64.86;99919.41;5055744;28;20025;-84
2023/06/11 04:37:38;;;;;;;13.70;12.25;;;;;;;21.54;66.90;99939.84;5055537;28;20040;-84
2023/06/11 04:40:09;;;;;;;;;;;;;;;21.10;68.87;99955.09;5056130;28;20389;-84
2023/06/11 04:42:35;;;;;;;14.70;13.20;;;;;;;20.73;69.41;99915.06;5054195;28;20408;-84
2023/06/11 04:45:02;;;;;;;13.70;12.30;;;;;;;20.92;69.74;99949.56;5054406;28;20487;-84
2023/06/11 04:47:28;;;;;;;12.48;11.32;;;;;;;21.39;68.60;99914.69;5054342;28;20392;-85
2023/06/11 04:49:56;;;;;;;16.08;13.02;;;;;;;22.27;66.58;99948.38;5053872;28;20040;-84
2023/06/11 04:52:22;;;;;;;13.80;12.40;;;;;;;23.45;63.92;99971.13;5055365;28;20044;-84
2023/06/11 04:54:47;;;;;;;13.35;12.10;;;;;;;23.92;61.97;99928.50;5054038;28;20429;-84
2023/06/11 04:57:13;;;;;;;14.13;11.75;;;;;;;24.29;60.85;99939.00;5055493;28;20031;-84
2023/06/11 04:59:38;;;;;;;13.45;12.18;;;;;;;23.62;62.87;99963.22;5054066;28;20388;-84
2023/06/11 05:02:04;;;;;;;13.30;11.63;;;;;;;23.08;63.69;99943.56;5055406;28;20025;-84
2023/06/11 05:04:31;;;;;;;13.48;12.15;;;;;;;22.74;64.78;99945.84;5055223;28;20055;-84
2023/06/11 05:07:00;;;;;;;13.68;12.25;;;;;;;22.23;66.46;99965.56;5053470;28;20551;-84
2023/06/11 05:09:25;;;;;;;14.27;12.88;;;;;;;22.03;66.73;99972.63;5055219;28;20108;-84
2023/06/11 05:11:50;;;;;;;13.40;12.20;;;;;;;21.64;67.77;99967.22;5055064;28;20561;-84
2023/06/11 05:14:16;;;;;;;13.95;12.68;;;;;;;21.26;68.72;99933.44;5053815;28;20546;-84
2023/06/11 05:16:41;;;;;;;14.38;12.98;;;;;;;21.05;69.89;99956.47;5054808;28;20035;-84
2023/06/11 05:19:07;;;;;;;13.23;11.93;;;;;;;21.00;70.49;99970.09;5054951;28;20029;-84
2023/06/11 05:21:32;;;;;;;13.65;12.25;;;;;;;20.89;71.02;99968.34;5054664;28;20393;-84
2023/06/11 05:24:06;;;;;;;14.35;12.85;;;;;;;20.99;71.34;99975.53;5054853;28;20475;-84
2023/06/11 05:26:35;;;;;;;14.07;12.65;;;;;;;21.09;71.46;99979.91;5055189;28;20384;-84
2023/06/11 05:29:04;;;;;;;14.82;13.32;;;;;;;21.06;71.86;99984.63;5054831;28;20495;-85
2023/06/11 05:31:30;;;;;;;14.85;13.02;;;;;;;21.11;71.33;99967.41;5054640;28;20033;-84
2023/06/11 05:33:56;;;;;;;13.77;12.38;;;;;;;21.59;70.88;99979.22;5054279;28;20107;-84
2023/06/11 05:36:22;;;;;;;13.77;12.50;;;;;;;21.83;70.04;99982.38;5054730;28;20025;-84
2023/06/11 05:38:47;;;;;;;13.73;12.35;;;;;;;21.84;70.24;99972.59;5047410;28;20033;-84
2023/06/11 05:41:13;;;;;;;13.18;11.88;;;;;;;21.98;71.23;99988.09;5034679;28;20028;-84
2023/06/11 05:43:38;;;;;;;23.52;17.58;;;;;;;21.81;71.79;99965.75;5034317;28;20026;-84
2023/06/11 05:46:04;;;;;;;12.10;11.00;;;;;;;21.50;72.82;99958.81;5034376;28;20029;-84
2023/06/11 05:48:30;;;;;;;20.42;15.35;;;;;;;21.21;74.09;99971.91;5034392;28;20381;-84
2023/06/11 05:50:55;;;;;;;14.13;12.68;;;;;;;21.17;74.38;99984.56;5033207;28;20029;-84
2023/06/11 05:53:21;;;;;;;12.40;11.20;;;;;;;21.14;75.44;99998.06;5034728;28;20534;-84
2023/06/11 05:55:46;;;;;;;11.82;10.63;;;;;;;21.10;74.75;99986.03;5033005;28;20025;-84
2023/06/11 05:58:12;;;;;;;11.05;9.95;;;;;;;21.54;74.11;99997.34;5034390;28;20033;-85
2023/06/11 06:00:37;;;;;;;11.15;9.88;;;;;;;22.09;72.02;99990.66;5034084;28;20069;-84
2023/06/11 06:03:03;;;;;;;11.20;10.10;;;;;;;22.31;69.57;100008.16;5034160;28;20469;-85
2023/06/11 06:05:29;;;;;;;10.18;9.35;;;;;;;22.45;70.07;100009.56;5033026;28;20053;-85
2023/06/11 06:07:54;;;;;;;9.98;9.13;;;;;;;22.60;69.15;100002.88;5033998;28;20026;-85
2023/06/11 06:10:20;;;;;;;9.45;8.55;;;;;;;23.06;68.48;100011.94;5034159;28;20033;-85
2023/06/11 06:12:45;;;;;;;9.57;8.57;;;;;;;23.53;66.47;100017.28;5033822;28;20026;-85
2023/06/11 06:15:10;;;;;;;9.40;8.50;;;;;;;24.02;65.31;100022.38;5034204;28;20033;-85
2023/06/11 06:17:36;;;;;;;10.30;9.38;;;;;;;23.86;64.57;100001.75;5033889;28;20025;-85
2023/06/11 06:20:01;;;;;;;10.43;9.45;;;;;;;23.60;64.53;99982.97;5032318;28;20036;-84
2023/06/11 06:22:27;;;;;;;9.82;8.93;;;;;;;24.24;64.35;99999.84;5036676;28;20469;-85
2023/06/11 06:24:52;;;;;;;10.20;9.27;;;;;;;24.79;62.80;100015.69;5045573;28;20025;-85
2023/06/11 06:27:17;;;;;;;8.98;8.05;;;;;;;25.46;62.00;100008.03;5043267;28;20036;-85
2023/06/11 06:29:43;;;;;;;10.30;8.68;;;;;;;26.17;59.48;100015.69;5042094;28;20021;-85
2023/06/11 06:32:08;;;;;;;8.25;7.60;;;;;;;27.70;56.03;100006.09;5036161;28;20568;-85
2023/06/11 06:34:34;;;;;;;8.90;8.10;;;;;;;29.09;53.83;100020.31;5043203;28;20124;-85
2023/06/11 06:37:00;;;;;;;8.65;7.95;;;;;;;29.94;51.67;100008.28;5043540;28;20102;-85
2023/06/11 06:39:26;;;;;;;9.30;8.50;;;;;;;30.80;49.65;100019.13;5038672;28;20049;-85
2023/06/11 06:41:51;;;;;;;10.40;9.40;;;;;;;31.34;48.09;100021.22;5044090;28;20075;-86
2023/06/11 06:44:17;;;;;;;8.27;7.53;;;;;;;31.99;47.45;100003.78;5044646;28;20036;-85
2023/06/11 06:46:42;;;;;;;8.90;8.20;;;;;;;32.84;46.11;100006.03;5046167;28;20025;-85
2023/06/11 06:49:07;;;;;;;9.75;8.95;;;;;;;33.07;44.63;100027.19;5043055;28;20041;-85
2023/06/11 06:51:33;;;;;;;8.30;7.60;;;;;;;33.04;45.61;100014.97;5041822;28;20127;-84
2023/06/11 06:53:59;;;;;;;9.45;8.55;;;;;;;33.09;44.75;100028.66;5035659;28;20108;-85
2023/06/11 06:56:26;;;;;;;9.30;8.50;;;;;;;31.73;46.76;100027.88;5033319;28;20034;-85
2023/06/11 06:58:51;;;;;;;10.20;9.15;;;;;;;31.46;47.51;100025.03;5032959;28;20120;-85
2023/06/11 07:01:16;;;;;;;8.55;7.90;;;;;;;31.43;47.67;99998.50;5031744;28;20505;-84
2023/06/11 07:03:42;;;;;;;8.50;7.78;;;;;;;32.39;47.02;100001.19;5032691;28;20659;-85
2023/06/11 07:06:08;;;;;;;10.48;9.45;;;;;;;32.68;45.79;100021.56;5033113;28;20500;-85
2023/06/11 07:08:34;;;;;;;8.40;7.70;;;;;;;32.00;46.27;100031.56;5033251;28;20171;-85
2023/06/11 07:10:59;;;;;;;9.85;8.88;;;;;;;32.95;44.58;100024.28;5031529;28;20068;-85
2023/06/11 07:13:24;;;;;;;7.43;6.82;;;;;;;33.58;44.41;100007.59;5032924;28;20029;-85
2023/06/11 07:15:50;;;;;;;8.88;8.13;;;;;;;34.46;42.80;100021.31;5032941;28;20032;-85
2023/06/11 07:18:16;;;;;;;8.43;7.78;;;;;;;34.07;43.71;100015.13;5032667;28;20033;-85
2023/06/11 07:20:43;;;;;;;9.07;8.30;;;;;;;33.22;43.89;100017.00;5032643;28;20075;-85
2023/06/11 07:23:08;;;;;;;8.15;7.45;;;;;;;32.81;44.58;99996.47;5032815;28;20029;-85
2023/06/11 07:25:34;;;;;;;9.07;8.25;;;;;;;32.81;44.64;99991.06;5032756;28;20083;-84
2023/06/11 07:28:02;;;;;;;9.75;8.80;;;;;;;32.35;45.60;100021.47;5032410;28;20083;-85
2023/06/11 07:30:28;;;;;;;13.27;10.25;;;;;;;30.85;48.30;99995.22;5032508;28;20112;-85
2023/06/11 07:32:54;;;;;;;9.20;8.38;;;;;;;31.28;47.63;99985.19;5031977;28;20401;-85
2023/06/11 07:35:20;;;;;;;11.05;9.45;;;;;;;31.33;46.85;100016.06;5032692;28;20607;-85
2023/06/11 07:37:46;;;;;;;9.32;8.32;;;;;;;30.05;49.43;100004.28;5032322;28;20052;-85
2023/06/11 07:40:12;;;;;;;9.70;8.63;;;;;;;30.43;49.59;100014.84;5032434;28;20033;-85
2023/06/11 07:42:37;;;;;;;11.75;10.65;;;;;;;29.75;50.52;100006.19;5032351;28;20083;-85
2023/06/11 07:45:03;;;;;;;10.05;9.18;;;;;;;30.43;49.68;100014.84;5032087;28;20098;-84
2023/06/11 07:47:29;;;;;;;11.18;10.07;;;;;;;30.88;48.20;99999.34;5032244;28;20033;-85
2023/06/11 07:49:54;;;;;;;10.80;9.70;;;;;;;30.92;48.63;100000.63;5032156;28;20099;-85
2023/06/11 07:52:20;;;;;;;10.50;9.65;;;;;;;31.13;47.94;99986.28;5032339;28;20031;-85
2023/06/11 07:54:46;;;;;;;10.60;9.80;;;;;;;31.02;48.43;100015.41;5031890;28;20580;-85
2023/06/11 07:57:12;;;;;;;10.90;10.00;;;;;;;29.73;49.13;100003.69;5032134;28;20112;-85
2023/06/11 07:59:40;;;;;;;11.25;10.25;;;;;;;28.35;51.70;100008.44;5031982;28;20029;-85
2023/06/11 08:02:07;;;;;;;15.02;11.85;;;;;;;26.97;55.11;100015.94;5032011;28;20081;-84
2023/06/11 08:04:32;;;;;;;12.30;11.20;;;;;;;26.08;56.58;99969.44;5032156;28;20056;-84
2023/06/11 08:06:58;;;;;;;12.50;11.35;;;;;;;26.78;56.75;99985.03;5031879;28;20021;-84
2023/06/11 08:09:23;;;;;;;12.10;11.00;;;;;;;28.06;53.47;100001.09;5032075;28;20080;-84
2023/06/11 08:11:49;;;;;;;11.73;10.68;;;;;;;27.71;53.62;99995.22;5031776;28;20033;-84
2023/06/11 08:14:18;;;;;;;11.52;10.63;;;;;;;27.47;53.83;100006.81;5030518;28;20022;-84
2023/06/11 08:16:43;;;;;;;13.15;9.73;;;;;;;27.09;53.29;100011.94;5030443;28;20136;-84
2023/06/11 08:19:09;;;;;;;10.77;8.98;;;;;;;26.61;55.12;100000.22;5031775;28;20155;-84
2023/06/11 08:21:35;;;;;;;9.48;8.50;;;;;;;25.90;53.40;99983.88;5031965;28;20022;-84
2023/06/11 08:24:00;;;;;;;9.27;8.25;;;;;;;25.71;54.83;99998.31;5030496;28;20018;-84
2023/06/11 08:26:26;;;;;;;10.13;9.13;;;;;;;25.20;54.92;100000.03;5031920;28;20025;-84
2023/06/11 08:28:52;;;;;;;10.50;9.40;;;;;;;24.76;55.89;99989.38;5032990;28;20030;-84
2023/06/11 08:31:17;;;;;;;11.27;8.93;;;;;;;24.95;57.40;100012.34;5041690;28;20036;-85
2023/06/11 08:33:42;;;;;;;10.77;9.35;;;;;;;24.74;57.34;100015.34;5039608;28;20045;-85
2023/06/11 08:36:08;;;;;;;9.10;8.25;;;;;;;24.45;57.60;99999.59;5029847;28;20026;-85
2023/06/11 08:38:33;;;;;;;9.40;8.30;;;;;;;24.15;56.96;99977.66;5031820;28;20029;-85
2023/06/11 08:40:58;;;;;;;9.55;8.65;;;;;;;24.20;57.21;99971.88;5030219;28;20025;-85
2023/06/11 08:43:24;;;;;;;11.60;9.45;;;;;;;24.15;56.55;99981.13;5031523;28;20065;-85
2023/06/11 08:45:50;;;;;;;9.15;8.35;;;;;;;23.99;57.29;100010.22;5032556;28;20087;-85
2023/06/11 08:48:19;;;;;;;8.82;8.02;;;;;;;24.04;57.24;100010.63;5039297;28;20174;-85
2023/06/11 08:50:46;;;;;;;12.85;8.23;;;;;;;24.01;56.31;99973.66;5039758;28;20019;-85
2023/06/11 08:53:13;;;;;;;9.45;8.55;;;;;;;24.07;56.00;99993.53;5035956;28;20037;-85
2023/06/11 08:55:41;;;;;;;9.20;8.27;;;;;;;23.96;55.73;100004.38;5047764;28;20029;-84
2023/06/11 08:58:07;;;;;;;10.23;9.18;;;;;;;23.53;56.13;99965.91;5044386;28;20520;-85
2023/06/11 09:00:34;;;;;;;7.78;7.07;;;;;;;23.62;56.17;99995.13;5037279;28;20026;-85
2023/06/11 09:03:01;;;;;;;8.60;7.80;;;;;;;23.73;56.11;99980.00;5041331;28;20564;-85
2023/06/11 09:05:27;;;;;;;10.90;7.90;;;;;;;23.72;57.04;99984.47;5039091;28;20017;-85
2023/06/11 09:07:52;;;;;;;8.70;7.93;;;;;;;23.77;56.34;99990.19;5043540;28;20158;-85
2023/06/11 09:10:19;;;;;;;9.27;8.38;;;;;;;23.27;56.49;99953.28;5053695;28;20025;-85
2023/06/11 09:12:45;;;;;;;8.48;7.68;;;;;;;23.60;55.87;99978.50;5054857;28;20469;-85
2023/06/11 09:15:12;;;;;;;9.10;7.70;;;;;;;23.61;56.76;99960.72;5054753;28;20432;-85
2023/06/11 09:17:40;;;;;;;9.15;8.35;;;;;;;23.75;56.63;99968.22;5055169;28;20025;-85
2023/06/11 09:20:08;;;;;;;8.77;7.10;;;;;;;23.47;56.72;99943.44;5054745;28;20144;-85
2023/06/11 09:22:36;;;;;;;8.55;7.45;;;;;;;23.79;56.18;99956.28;5054545;28;20029;-85
2023/06/11 09:25:06;;;;;;;7.30;6.60;;;;;;;24.02;56.46;99945.22;5054591;28;20025;-85
2023/06/11 09:27:32;;;;;;;13.90;7.90;;;;;;;24.13;54.56;99991.09;5053360;28;20060;-85
2023/06/11 09:30:18;;;;;;;9.05;8.13;;;;;;;23.92;54.56;99982.53;5054690;28;20028;-85
2023/06/11 09:32:48;;;;;;;9.82;7.40;;;;;;;23.84;55.89;99950.53;5054602;28;20106;-85
2023/06/11 09:35:15;;;;;;;7.22;6.63;;;;;;;24.00;54.92;99958.69;5054652;28;20071;-85
2023/06/11 09:37:45;;;;;;;13.13;6.78;;;;;;;24.03;53.03;99966.38;5054513;28;20024;-85
2023/06/11 09:40:15;;;;;;;7.97;6.57;;;;;;;24.03;53.86;99963.72;5054633;28;20047;-85
2023/06/11 09:42:43;;;;;;;7.38;6.68;;;;;;;24.20;53.58;99987.84;5053485;28;20294;-85
2023/06/11 09:45:17;;;;;;;6.68;6.18;;;;;;;23.98;53.47;99949.19;5054771;28;20044;-85
2023/06/11 09:47:47;;;;;;;8.45;6.80;;;;;;;23.99;53.85;99951.69;5054919;28;20021;-86
2023/06/11 09:50:14;;;;;;;9.63;7.50;;;;;;;23.91;52.46;99967.56;5054358;28;20036;-85
2023/06/11 09:52:41;;;;;;;8.00;6.80;;;;;;;23.93;51.90;99976.22;5054846;28;20029;-85
2023/06/11 09:55:08;;;;;;;10.48;7.15;;;;;;;23.68;52.00;99992.88;5054415;28;20036;-85
2023/06/11 09:57:36;;;;;;;9.73;6.95;;;;;;;23.58;52.41;99991.06;5054613;28;20017;-85
2023/06/11 10:00:01;;;;;;;7.28;6.57;;;;;;;23.73;53.27;99988.81;5054254;28;20431;-85
2023/06/11 10:02:26;;;;;;;9.57;7.80;;;;;;;23.96;53.04;99967.13;5053057;28;20024;-86
2023/06/11 10:04:53;;;;;;;9.40;6.90;;;;;;;24.11;51.56;99993.06;5054107;28;20025;-86
2023/06/11 10:07:21;;;;;;;8.18;6.88;;;;;;;23.85;51.69;99963.69;5053254;28;20083;-85
2023/06/11 10:09:50;;;;;;;7.75;6.65;;;;;;;23.74;51.47;99971.03;5054248;28;20025;-85
2023/06/11 10:12:15;;;;;;;9.63;7.57;;;;;;;23.65;52.00;99972.75;5054520;28;20039;-85
2023/06/11 10:14:48;;;;;;;8.23;6.43;;;;;;;23.73;52.26;99982.66;5054169;28;20037;-85
2023/06/11 10:17:15;;;;;;;8.95;7.72;;;;;;;23.64;51.75;99971.06;5053843;28;20028;-85
2023/06/11 10:19:41;;;;;;;8.55;7.32;;;;;;;23.69;51.39;99962.66;5054092;28;20362;-86
2023/06/11 10:22:06;;;;;;;7.78;6.15;;;;;;;23.82;51.52;99947.19;5052879;28;20032;-85
2023/06/11 10:24:31;;;;;;;9.07;7.10;;;;;;;23.90;50.99;99982.69;5054130;28;20021;-86
2023/06/11 10:27:15;;;;;;;7.78;7.05;;;;;;;23.82;51.54;99979.94;5054304;28;20020;-86
2023/06/11 10:29:49;;;;;;;11.52;6.55;;;;;;;23.80;51.19;100003.16;5053958;28;20086;-86
2023/06/11 10:32:20;;;;;;;7.90;6.47;;;;;;;23.94;51.71;99990.38;5051665;28;20029;-81
2023/06/11 10:35:04;;;;;;;11.60;6.43;;;;;;;24.01;51.09;99980.81;5033376;28;20064;-81
2023/06/11 10:37:31;;;;;;;7.85;6.90;;;;;;;24.15;50.87;99993.63;5033766;28;20026;-82
2023/06/11 10:39:56;;;;;;;11.07;6.90;;;;;;;23.95;50.87;99984.06;5033337;28;20053;-83
2023/06/11 10:42:24;;;;;;;7.00;6.32;;;;;;;23.77;50.99;99963.59;5033277;28;20056;-81
2023/06/11 10:44:49;;;;;;;7.82;6.25;;;;;;;23.99;50.72;99982.78;5033458;28;20477;-81
2023/06/11 10:47:16;;;;;;;7.28;6.55;;;;;;;23.90;50.58;99948.13;5033241;28;20103;-82
2023/06/11 10:49:42;;;;;;;8.52;6.20;;;;;;;24.08;49.37;99977.41;5033279;28;20029;-83
2023/06/11 10:52:08;;;;;;;6.90;5.93;;;;;;;24.15;49.33;99962.50;5033345;28;20112;-81
2023/06/11 10:54:34;;;;;;;9.65;6.60;;;;;;;24.23;49.30;99964.41;5033353;28;20052;-83
2023/06/11 10:57:01;;;;;;;8.75;6.78;;;;;;;24.15;48.69;99964.34;5031674;28;20056;-82
2023/06/11 10:59:28;;;;;;;7.18;6.10;;;;;;;24.23;48.50;99993.69;5033445;28;20024;-82
2023/06/11 11:01:54;;;;;;;7.03;5.68;;;;;;;24.25;48.52;99973.06;5033122;28;20029;-82
2023/06/11 11:04:21;;;;;;;7.22;6.20;;;;;;;24.11;48.24;99950.50;5033229;28;20033;-81
2023/06/11 11:06:47;;;;;;;7.60;6.28;;;;;;;24.27;48.26;99980.91;5033677;28;20416;-81
2023/06/11 11:09:21;;;;;;;6.75;6.05;;;;;;;24.29;47.96;99969.13;5032853;28;20029;-81
2023/06/11 11:11:47;;;;;;;6.57;5.97;;;;;;;24.39;48.09;99971.72;5033442;28;20037;-82
2023/06/11 11:14:14;;;;;;;8.65;5.40;;;;;;;24.42;48.18;99976.75;5032829;28;20106;-84
2023/06/11 11:16:39;;;;;;;6.68;5.55;;;;;;;24.38;47.98;99983.38;5032933;28;20029;-82
2023/06/11 11:19:05;;;;;;;7.32;6.10;;;;;;;24.33;48.82;99970.50;5032688;28;20590;-83
2023/06/11 11:21:30;;;;;;;7.10;6.00;;;;;;;24.04;48.58;99967.22;5042279;28;20021;-85